Time;durP1;ratioP1;P1;durP2;ratioP2;P2;SDS_P1;SDS_P2;PMS_P1;PMS_P2;Temp;Humidity;BMP_temperature;BMP_pressure;BME280_temperature;BME280_humidity;BME280_pressure;Samples;Min_cycle;Max_cycle;Signal;HPM_P1;HPM_P2
2021/10/01 00:00:12;;;;;;;0.40;0.30;;;8.70;99.90;;;;;;5016246;28;20470;-80
2021/10/01 00:02:38;;;;;;;0.30;0.30;;;8.80;99.90;;;;;;5016484;28;20486;-81
2021/10/01 00:05:06;;;;;;;1.03;0.60;;;8.70;99.90;;;;;;5016295;28;20427;-81
2021/10/01 00:07:33;;;;;;;0.30;0.20;;;8.70;99.90;;;;;;5016474;28;20455;-81
2021/10/01 00:09:59;;;;;;;0.40;0.30;;;8.70;99.90;;;;;;5016058;28;20471;-81
2021/10/01 00:12:27;;;;;;;0.40;0.30;;;8.70;99.90;;;;;;5016406;28;20455;-81
2021/10/01 00:14:54;;;;;;;0.30;0.30;;;8.70;99.90;;;;;;5016331;28;20451;-81
2021/10/01 00:17:22;;;;;;;0.97;0.40;;;8.70;99.90;;;;;;5016206;28;20969;-85
2021/10/01 00:19:48;;;;;;;0.30;0.30;;;8.70;99.90;;;;;;5016036;28;20463;-86
2021/10/01 00:22:15;;;;;;;0.30;0.30;;;8.70;99.90;;;;;;5016408;28;20487;-86
2021/10/01 00:24:42;;;;;;;0.40;0.40;;;8.70;99.90;;;;;;5016327;28;20456;-85
2021/10/01 00:27:12;;;;;;;0.70;0.40;;;8.70;99.90;;;;;;5016138;28;20436;-84
2021/10/01 00:29:39;;;;;;;0.70;0.30;;;8.70;99.90;;;;;;5016073;28;20443;-84
2021/10/01 00:32:07;;;;;;;0.30;0.30;;;8.70;99.90;;;;;;5016401;28;20460;-84
2021/10/01 00:34:35;;;;;;;1.10;0.57;;;8.70;99.90;;;;;;5015588;28;20991;-84
2021/10/01 00:37:02;;;;;;;0.37;0.37;;;8.70;99.90;;;;;;5016022;28;20456;-84
2021/10/01 00:39:28;;;;;;;0.40;0.40;;;8.70;99.90;;;;;;5015885;28;20455;-84
2021/10/01 00:41:55;;;;;;;0.40;0.40;;;8.60;99.90;;;;;;5015475;28;21029;-84
2021/10/01 00:44:22;;;;;;;2.00;0.50;;;8.60;99.90;;;;;;5015833;28;20809;-84
2021/10/01 00:46:49;;;;;;;0.70;0.40;;;8.60;99.90;;;;;;5015791;28;20456;-84
2021/10/01 00:49:16;;;;;;;0.30;0.30;;;8.70;99.90;;;;;;5015763;28;20803;-84
2021/10/01 00:51:45;;;;;;;0.50;0.40;;;8.60;99.90;;;;;;5015786;28;20495;-84
2021/10/01 00:54:12;;;;;;;0.50;0.27;;;8.60;99.90;;;;;;5015601;28;20458;-84
2021/10/01 00:56:39;;;;;;;0.30;0.30;;;8.60;99.90;;;;;;5015358;28;20436;-84
2021/10/01 00:59:06;;;;;;;1.10;0.60;;;8.60;99.90;;;;;;5015608;28;20451;-84
2021/10/01 01:01:33;;;;;;;0.40;0.30;;;8.60;99.90;;;;;;5015109;28;20822;-84
2021/10/01 01:04:02;;;;;;;0.40;0.37;;;8.60;99.90;;;;;;5015401;28;20463;-84
2021/10/01 01:06:36;;;;;;;0.30;0.30;;;8.60;99.90;;;;;;5015437;28;20795;-84
2021/10/01 01:09:12;;;;;;;0.40;0.37;;;8.60;99.90;;;;;;5015651;28;20530;-84
2021/10/01 01:11:51;;;;;;;0.40;0.40;;;8.60;99.90;;;;;;5014920;28;20458;-84
2021/10/01 01:14:24;;;;;;;0.37;0.30;;;8.60;99.90;;;;;;5015281;28;20431;-83
2021/10/01 01:16:52;;;;;;;0.40;0.30;;;8.60;99.90;;;;;;5015159;28;20436;-84
2021/10/01 01:19:31;;;;;;;0.40;0.40;;;8.60;99.90;;;;;;5014820;28;20996;-84
2021/10/01 01:22:13;;;;;;;0.30;0.30;;;8.60;99.90;;;;;;5015102;28;20467;-84
2021/10/01 01:25:03;;;;;;;0.40;0.40;;;8.60;99.90;;;;;;5015152;28;20431;-84
2021/10/01 01:27:50;;;;;;;4.53;0.40;;;8.70;99.90;;;;;;5015051;28;20464;-84
2021/10/01 01:30:20;;;;;;;0.50;0.40;;;8.60;99.90;;;;;;5015115;28;20997;-84
2021/10/01 01:32:49;;;;;;;2.40;0.40;;;8.70;99.90;;;;;;5014907;28;20485;-84
2021/10/01 01:35:20;;;;;;;0.30;0.30;;;8.60;99.90;;;;;;5014624;28;20475;-84
2021/10/01 01:37:54;;;;;;;0.30;0.20;;;8.60;99.90;;;;;;5014873;28;20448;-84
2021/10/01 01:40:23;;;;;;;0.30;0.30;;;8.60;99.90;;;;;;5014808;28;20471;-84
2021/10/01 01:42:53;;;;;;;0.30;0.30;;;8.60;99.90;;;;;;5014639;28;20483;-84
2021/10/01 01:45:20;;;;;;;0.30;0.20;;;8.60;99.90;;;;;;5014772;28;20903;-84
2021/10/01 01:47:51;;;;;;;0.50;0.47;;;8.50;99.90;;;;;;5014665;28;20458;-84
2021/10/01 01:50:18;;;;;;;0.30;0.30;;;8.50;99.90;;;;;;5014793;28;20459;-84
2021/10/01 01:52:45;;;;;;;0.30;0.30;;;8.50;99.90;;;;;;5014322;28;20809;-84
2021/10/01 01:55:14;;;;;;;0.30;0.30;;;8.60;99.90;;;;;;5014474;28;20794;-84
2021/10/01 01:57:45;;;;;;;0.30;0.30;;;8.60;99.90;;;;;;5014560;28;20452;-84
2021/10/01 02:00:12;;;;;;;0.30;0.30;;;8.50;99.90;;;;;;5014479;28;20471;-84
2021/10/01 02:02:39;;;;;;;0.30;0.30;;;8.50;99.90;;;;;;5014309;28;20506;-84
2021/10/01 02:05:09;;;;;;;2.33;0.40;;;8.50;99.90;;;;;;5014024;28;20801;-84
2021/10/01 02:07:37;;;;;;;0.40;0.40;;;8.50;99.90;;;;;;5014343;28;20459;-84
2021/10/01 02:10:05;;;;;;;0.30;0.30;;;8.50;99.90;;;;;;5013766;28;20475;-84
2021/10/01 02:12:34;;;;;;;0.40;0.40;;;8.40;99.90;;;;;;5013571;28;20444;-84
2021/10/01 02:15:02;;;;;;;0.40;0.40;;;8.40;99.90;;;;;;5014224;28;20516;-84
2021/10/01 02:17:32;;;;;;;0.97;0.40;;;8.40;99.90;;;;;;5014228;28;20435;-84
2021/10/01 02:20:01;;;;;;;0.30;0.30;;;8.40;99.90;;;;;;5013993;28;20487;-84
2021/10/01 02:22:32;;;;;;;0.50;0.50;;;8.40;99.90;;;;;;5013998;28;20574;-84
2021/10/01 02:24:59;;;;;;;0.30;0.30;;;8.40;99.90;;;;;;5014001;28;20452;-84
2021/10/01 02:27:34;;;;;;;0.63;0.43;;;8.40;99.90;;;;;;5014094;28;20954;-84
2021/10/01 02:30:07;;;;;;;0.30;0.30;;;8.40;99.90;;;;;;5013957;28;20463;-83
2021/10/01 02:32:38;;;;;;;0.30;0.30;;;8.30;99.90;;;;;;5013566;28;20459;-84
2021/10/01 02:35:06;;;;;;;0.30;0.30;;;8.40;99.90;;;;;;5013440;28;20463;-84
2021/10/01 02:37:35;;;;;;;0.30;0.30;;;8.30;99.90;;;;;;5013881;28;20912;-84
2021/10/01 02:40:05;;;;;;;0.40;0.40;;;8.30;99.90;;;;;;5013520;28;20463;-84
2021/10/01 02:42:32;;;;;;;0.40;0.40;;;8.40;99.90;;;;;;5013368;28;21037;-84
2021/10/01 02:44:59;;;;;;;0.60;0.60;;;8.30;99.90;;;;;;5013829;28;20455;-84
2021/10/01 02:47:29;;;;;;;0.70;0.40;;;8.30;99.90;;;;;;5013506;28;20431;-84
2021/10/01 02:49:57;;;;;;;0.43;0.40;;;8.20;99.90;;;;;;5013469;28;20861;-84
2021/10/01 02:52:29;;;;;;;0.40;0.30;;;8.20;99.90;;;;;;5013919;28;20475;-84
2021/10/01 02:55:07;;;;;;;0.40;0.40;;;8.20;99.90;;;;;;5013734;28;20443;-84
2021/10/01 02:57:41;;;;;;;0.47;0.47;;;8.10;99.90;;;;;;5013711;28;20435;-84
2021/10/01 03:00:09;;;;;;;0.40;0.30;;;8.10;99.90;;;;;;5013566;28;20470;-84
2021/10/01 03:02:39;;;;;;;0.50;0.30;;;8.10;99.90;;;;;;5013452;28;20479;-84
2021/10/01 03:05:06;;;;;;;0.40;0.40;;;8.00;99.90;;;;;;5013283;28;20842;-83
2021/10/01 03:07:34;;;;;;;0.30;0.30;;;8.00;99.90;;;;;;5013528;28;20451;-84
2021/10/01 03:10:05;;;;;;;0.40;0.40;;;7.90;99.90;;;;;;5013500;28;20468;-84
2021/10/01 03:12:33;;;;;;;0.33;0.33;;;7.90;99.90;;;;;;5013798;28;20451;-84
2021/10/01 03:15:01;;;;;;;0.30;0.30;;;7.90;99.90;;;;;;5013848;28;20460;-84
2021/10/01 03:17:28;;;;;;;0.30;0.30;;;7.90;99.90;;;;;;5013721;28;20448;-84
2021/10/01 03:19:55;;;;;;;0.40;0.30;;;7.90;99.90;;;;;;5013299;28;20978;-84
2021/10/01 03:22:22;;;;;;;0.30;0.30;;;7.90;99.90;;;;;;5014765;28;20877;-84
2021/10/01 03:24:50;;;;;;;0.50;0.50;;;7.90;99.90;;;;;;5017456;28;20501;-81
2021/10/01 03:27:18;;;;;;;0.40;0.37;;;7.90;99.90;;;;;;5017437;28;20455;-81
2021/10/01 03:29:45;;;;;;;0.77;0.77;;;8.00;99.90;;;;;;5017268;28;20475;-80
2021/10/01 03:32:12;;;;;;;0.60;0.30;;;8.00;99.90;;;;;;5017094;28;20459;-80
2021/10/01 03:34:39;;;;;;;0.70;0.70;;;8.00;99.90;;;;;;5016620;28;20482;-81
2021/10/01 03:37:06;;;;;;;0.30;0.30;;;8.00;99.90;;;;;;5017289;28;20817;-80
2021/10/01 03:39:33;;;;;;;0.70;0.30;;;7.90;99.90;;;;;;5017101;28;20435;-81
2021/10/01 03:42:00;;;;;;;0.30;0.30;;;7.90;99.90;;;;;;5016983;28;20455;-80
2021/10/01 03:44:28;;;;;;;0.93;0.40;;;7.90;99.90;;;;;;5017799;28;20834;-81
2021/10/01 03:46:55;;;;;;;0.30;0.30;;;7.90;99.90;;;;;;5017074;28;20451;-81
2021/10/01 03:49:21;;;;;;;1.80;1.70;;;7.90;99.90;;;;;;5016982;28;20477;-81
2021/10/01 03:51:48;;;;;;;0.30;0.30;;;7.90;99.90;;;;;;5016534;28;20452;-80
2021/10/01 03:54:15;;;;;;;0.40;0.40;;;7.80;99.90;;;;;;5017060;28;20443;-81
2021/10/01 03:56:42;;;;;;;1.07;0.40;;;7.80;99.90;;;;;;5016985;28;20822;-81
2021/10/01 03:59:09;;;;;;;0.40;0.30;;;7.80;99.90;;;;;;5016718;28;20494;-80
2021/10/01 04:01:37;;;;;;;0.40;0.40;;;7.80;99.90;;;;;;5016821;28;20472;-81
2021/10/01 04:04:04;;;;;;;0.30;0.30;;;7.80;99.90;;;;;;5016648;28;20494;-80
2021/10/01 04:06:30;;;;;;;0.30;0.30;;;7.80;99.90;;;;;;5016781;28;20474;-80
2021/10/01 04:08:57;;;;;;;0.40;0.30;;;7.80;99.90;;;;;;5016587;28;20458;-80
2021/10/01 04:11:24;;;;;;;0.50;0.30;;;7.80;99.90;;;;;;5016163;28;21004;-81
2021/10/01 04:13:50;;;;;;;0.40;0.40;;;7.70;99.90;;;;;;5016432;28;20447;-81
2021/10/01 04:16:17;;;;;;;0.30;0.30;;;7.70;99.90;;;;;;5016290;28;20432;-80
2021/10/01 04:18:45;;;;;;;0.77;0.60;;;7.70;99.90;;;;;;5016435;28;20462;-80
2021/10/01 04:21:12;;;;;;;0.40;0.30;;;7.70;99.90;;;;;;5016636;28;20543;-80
2021/10/01 04:23:41;;;;;;;0.30;0.30;;;7.70;99.90;;;;;;5016301;28;20487;-84
2021/10/01 04:26:08;;;;;;;0.53;0.53;;;7.70;99.90;;;;;;5016544;28;20866;-84
2021/10/01 04:28:35;;;;;;;2.83;0.40;;;7.70;99.90;;;;;;5016246;28;20448;-84
2021/10/01 04:31:02;;;;;;;0.77;0.40;;;7.70;99.90;;;;;;5016256;28;20514;-84
2021/10/01 04:33:33;;;;;;;0.40;0.40;;;7.70;99.90;;;;;;5015298;28;20448;-84
2021/10/01 04:36:02;;;;;;;0.40;0.40;;;7.80;99.90;;;;;;5016054;28;20823;-84
2021/10/01 04:38:29;;;;;;;0.50;0.50;;;7.80;99.90;;;;;;5015713;28;20459;-84
2021/10/01 04:40:56;;;;;;;0.40;0.33;;;7.70;99.90;;;;;;5015529;28;21014;-84
2021/10/01 04:43:23;;;;;;;0.83;0.30;;;7.70;99.90;;;;;;5015740;28;20498;-84
2021/10/01 04:45:49;;;;;;;0.40;0.40;;;7.70;99.90;;;;;;5015758;28;20463;-84
2021/10/01 04:48:16;;;;;;;0.40;0.37;;;7.70;99.90;;;;;;5015715;28;20451;-84
2021/10/01 04:50:43;;;;;;;0.30;0.30;;;7.70;99.90;;;;;;5015671;28;20486;-84
2021/10/01 04:53:11;;;;;;;0.80;0.30;;;7.70;99.90;;;;;;5015689;28;20462;-83
2021/10/01 04:55:38;;;;;;;0.40;0.30;;;7.70;99.90;;;;;;5015856;28;20451;-83
2021/10/01 04:58:07;;;;;;;0.30;0.30;;;7.70;99.90;;;;;;5015583;28;20448;-84
2021/10/01 05:00:34;;;;;;;0.30;0.20;;;7.60;99.90;;;;;;5015521;28;20547;-84
2021/10/01 05:03:01;;;;;;;0.30;0.30;;;7.60;99.90;;;;;;5015716;28;20506;-84
2021/10/01 05:05:28;;;;;;;0.37;0.30;;;7.70;99.90;;;;;;5015505;28;20451;-84
2021/10/01 05:07:55;;;;;;;0.30;0.30;;;7.60;99.90;;;;;;5015603;28;20456;-84
2021/10/01 05:10:23;;;;;;;0.60;0.60;;;7.60;99.90;;;;;;5015665;28;20463;-84
2021/10/01 05:12:50;;;;;;;0.40;0.40;;;7.60;99.90;;;;;;5015309;28;20474;-84
2021/10/01 05:15:18;;;;;;;0.30;0.20;;;7.50;99.90;;;;;;5015215;28;20451;-84
2021/10/01 05:17:45;;;;;;;0.30;0.20;;;7.50;99.90;;;;;;5015248;28;20506;-84
2021/10/01 05:20:14;;;;;;;0.40;0.30;;;7.50;99.90;;;;;;5015121;28;20459;-84
2021/10/01 05:22:40;;;;;;;0.30;0.30;;;7.40;99.90;;;;;;5015280;28;20455;-84
2021/10/01 05:25:08;;;;;;;0.30;0.30;;;7.40;99.90;;;;;;5015019;28;20451;-84
2021/10/01 05:27:37;;;;;;;0.40;0.30;;;7.50;99.90;;;;;;5015078;28;20443;-85
2021/10/01 05:30:05;;;;;;;0.30;0.27;;;7.50;99.90;;;;;;5014644;28;20843;-84
2021/10/01 05:32:31;;;;;;;0.50;0.37;;;7.50;99.90;;;;;;5014922;28;20460;-84
2021/10/01 05:34:58;;;;;;;0.30;0.30;;;7.40;99.90;;;;;;5014758;28;20479;-84
2021/10/01 05:37:25;;;;;;;0.30;0.30;;;7.40;99.90;;;;;;5014594;28;20808;-84
2021/10/01 05:39:51;;;;;;;0.30;0.20;;;7.40;99.90;;;;;;5015022;28;20467;-84
2021/10/01 05:42:18;;;;;;;0.50;0.30;;;7.40;99.90;;;;;;5014580;28;20438;-84
2021/10/01 05:44:46;;;;;;;0.30;0.20;;;7.40;99.90;;;;;;5014616;28;20479;-84
2021/10/01 05:47:13;;;;;;;0.30;0.27;;;7.40;99.90;;;;;;5013941;28;20452;-84
2021/10/01 05:49:41;;;;;;;0.40;0.30;;;7.40;99.90;;;;;;5014576;28;20432;-84
2021/10/01 05:52:23;;;;;;;0.30;0.30;;;7.40;99.90;;;;;;5014620;28;20609;-84
2021/10/01 05:54:52;;;;;;;0.30;0.30;;;7.50;99.90;;;;;;5014550;28;20427;-84
2021/10/01 05:57:20;;;;;;;0.30;0.30;;;7.50;99.90;;;;;;5014248;28;20958;-84
2021/10/01 05:59:48;;;;;;;0.80;0.40;;;7.50;99.90;;;;;;5014343;28;20800;-84
2021/10/01 06:02:17;;;;;;;0.30;0.27;;;7.60;99.90;;;;;;5014388;28;20456;-84
2021/10/01 06:04:45;;;;;;;0.30;0.20;;;7.70;99.90;;;;;;5014078;28;20479;-84
2021/10/01 06:07:12;;;;;;;0.30;0.30;;;7.70;99.90;;;;;;5014421;28;20455;-84
2021/10/01 06:09:40;;;;;;;0.60;0.50;;;7.80;99.90;;;;;;5014161;28;20534;-84
2021/10/01 06:12:07;;;;;;;0.37;0.27;;;7.90;99.90;;;;;;5014235;28;20452;-84
2021/10/01 06:14:34;;;;;;;0.30;0.30;;;8.00;99.90;;;;;;5014264;28;20432;-84
2021/10/01 06:17:03;;;;;;;0.30;0.30;;;8.10;99.90;;;;;;5014288;28;20440;-84
2021/10/01 06:19:32;;;;;;;0.30;0.30;;;8.20;99.90;;;;;;5014089;28;20443;-83
2021/10/01 06:21:58;;;;;;;0.30;0.30;;;8.20;99.90;;;;;;5014106;28;20432;-83
2021/10/01 06:24:25;;;;;;;0.30;0.20;;;8.30;99.90;;;;;;5013993;28;20499;-83
2021/10/01 06:26:53;;;;;;;0.30;0.27;;;8.40;99.90;;;;;;5014001;28;20436;-83
2021/10/01 06:29:19;;;;;;;0.30;0.30;;;8.40;99.90;;;;;;5013758;28;20927;-83
2021/10/01 06:31:47;;;;;;;0.40;0.33;;;8.50;99.90;;;;;;5013703;28;20463;-83
2021/10/01 06:34:15;;;;;;;0.30;0.30;;;8.60;99.90;;;;;;5013759;28;20479;-83
2021/10/01 06:36:42;;;;;;;0.30;0.20;;;8.70;99.90;;;;;;5013899;28;20458;-83
2021/10/01 06:39:09;;;;;;;0.30;0.30;;;8.70;99.90;;;;;;5013929;28;20463;-83
2021/10/01 06:41:37;;;;;;;0.40;0.30;;;8.80;99.90;;;;;;5013502;28;20846;-83
2021/10/01 06:44:06;;;;;;;0.40;0.40;;;8.90;99.90;;;;;;5013770;28;20482;-83
2021/10/01 06:46:39;;;;;;;0.40;0.30;;;9.00;99.90;;;;;;5014697;28;20454;-83
2021/10/01 08:19:44;;;;;;;0.40;0.30;;;11.90;99.90;;;;;;5016141;28;20430;-83
2021/10/01 08:22:13;;;;;;;0.40;0.30;;;12.00;99.90;;;;;;5016364;28;20447;-85
2021/10/01 08:24:40;;;;;;;0.40;0.40;;;12.20;99.90;;;;;;5016186;28;20487;-83
2021/10/01 08:27:07;;;;;;;0.30;0.30;;;12.40;99.90;;;;;;5015905;28;20474;-84
2021/10/01 08:29:36;;;;;;;0.80;0.30;;;12.60;99.90;;;;;;5015824;28;20435;-83
2021/10/01 08:32:04;;;;;;;0.40;0.40;;;12.80;99.90;;;;;;5016126;28;20451;-83
2021/10/01 08:34:32;;;;;;;0.40;0.30;;;12.90;99.90;;;;;;5015887;28;20514;-83
2021/10/01 08:37:00;;;;;;;0.40;0.30;;;13.00;99.90;;;;;;5016155;28;20447;-83
2021/10/01 08:39:27;;;;;;;0.40;0.30;;;13.20;99.90;;;;;;5015634;28;20439;-83
2021/10/01 08:41:54;;;;;;;0.50;0.50;;;13.40;99.90;;;;;;5015685;28;20440;-83
2021/10/01 08:44:20;;;;;;;0.50;0.33;;;13.50;99.90;;;;;;5015593;28;20815;-83
2021/10/01 08:46:51;;;;;;;1.27;0.70;;;13.60;99.90;;;;;;5015842;28;20451;-83
2021/10/01 08:49:18;;;;;;;0.40;0.40;;;13.70;99.90;;;;;;5015737;28;20769;-83
2021/10/01 08:51:46;;;;;;;1.23;0.47;;;14.00;99.90;;;;;;5015362;28;20470;-83
2021/10/01 08:54:13;;;;;;;0.50;0.40;;;14.40;99.90;;;;;;5016167;28;20443;-83
2021/10/01 08:56:39;;;;;;;0.60;0.50;;;14.80;99.90;;;;;;5015576;28;20452;-83
2021/10/01 08:59:06;;;;;;;0.37;0.30;;;15.20;99.90;;;;;;5015559;28;20447;-83
2021/10/01 09:01:33;;;;;;;0.40;0.40;;;15.50;99.90;;;;;;5015336;28;20835;-83
2021/10/01 09:04:01;;;;;;;0.40;0.40;;;15.70;99.90;;;;;;5015220;28;20478;-83
2021/10/01 09:06:28;;;;;;;0.40;0.40;;;16.20;99.90;;;;;;5015459;28;20443;-83
2021/10/01 09:08:57;;;;;;;0.40;0.40;;;16.50;99.90;;;;;;5015736;28;20447;-83
2021/10/01 09:11:28;;;;;;;0.40;0.40;;;16.90;99.90;;;;;;5015193;28;20887;-87
2021/10/01 09:13:56;;;;;;;0.50;0.40;;;17.20;99.90;;;;;;5015901;28;20528;-87
2021/10/01 09:16:22;;;;;;;0.40;0.30;;;17.70;99.90;;;;;;5014694;28;20947;-87
2021/10/01 09:18:50;;;;;;;0.30;0.30;;;18.10;99.90;;;;;;5014687;28;20915;-87
2021/10/01 09:21:20;;;;;;;0.50;0.50;;;18.50;99.90;;;;;;5015837;28;20471;-87
2021/10/01 09:23:59;;;;;;;0.50;0.40;;;18.90;99.90;;;;;;5015820;28;20826;-87
2021/10/01 09:26:26;;;;;;;0.40;0.40;;;19.40;99.90;;;;;;5015856;28;20903;-87
2021/10/01 09:28:56;;;;;;;0.37;0.30;;;19.60;99.90;;;;;;5015708;28;20417;-87
2021/10/01 09:31:35;;;;;;;0.40;0.40;;;19.60;99.90;;;;;;5015844;28;21022;-87
2021/10/01 09:34:04;;;;;;;0.80;0.40;;;19.60;99.90;;;;;;5015019;28;20983;-85
2021/10/01 09:36:32;;;;;;;0.40;0.40;;;19.60;99.90;;;;;;5015936;28;20447;-87
2021/10/01 09:38:59;;;;;;;0.47;0.47;;;19.60;99.90;;;;;;5015626;28;20773;-87
2021/10/01 09:41:30;;;;;;;3.13;0.50;;;19.60;99.90;;;;;;5015528;28;20467;-87
2021/10/01 09:44:06;;;;;;;0.87;0.40;;;19.50;99.90;;;;;;5015438;28;20472;-87
2021/10/01 09:46:51;;;;;;;0.40;0.40;;;19.40;99.90;;;;;;5015733;28;20422;-86
2021/10/01 09:49:30;;;;;;;0.50;0.30;;;19.30;99.90;;;;;;5016246;28;20428;-86
2021/10/01 09:51:58;;;;;;;1.03;0.40;;;19.40;99.90;;;;;;5015265;28;20413;-88
2021/10/01 09:54:27;;;;;;;0.73;0.50;;;19.60;99.70;;;;;;5016112;28;20892;-87
2021/10/01 09:56:55;;;;;;;0.57;0.43;;;20.00;99.90;;;;;;5014979;28;20432;-88
2021/10/01 09:59:23;;;;;;;0.40;0.40;;;20.50;99.30;;;;;;5015842;28;20432;-86
2021/10/01 10:02:05;;;;;;;0.87;0.57;;;20.90;98.00;;;;;;5015553;28;20459;-87
2021/10/01 10:04:35;;;;;;;0.40;0.40;;;21.10;96.20;;;;;;5014820;28;20974;-87
2021/10/01 10:07:15;;;;;;;0.97;0.40;;;21.10;95.30;;;;;;5015194;28;20526;-87
2021/10/01 10:09:44;;;;;;;0.40;0.40;;;20.80;95.30;;;;;;5014866;28;20416;-87
2021/10/01 10:12:13;;;;;;;0.90;0.30;;;20.80;94.60;;;;;;5015231;28;20795;-86
2021/10/01 10:14:46;;;;;;;2.00;0.50;;;20.90;93.90;;;;;;5015034;28;20818;-87
2021/10/01 10:17:17;;;;;;;0.40;0.40;;;20.90;94.20;;;;;;5014969;28;20862;-87
2021/10/01 10:19:44;;;;;;;0.40;0.40;;;21.00;93.70;;;;;;5014965;28;20907;-87
2021/10/01 10:22:13;;;;;;;0.77;0.40;;;21.40;93.50;;;;;;5015578;28;20451;-87
2021/10/01 10:24:41;;;;;;;0.40;0.30;;;21.80;92.50;;;;;;5015186;28;20483;-88
2021/10/01 10:27:08;;;;;;;0.37;0.37;;;22.30;90.80;;;;;;5014489;28;20451;-87
2021/10/01 10:29:35;;;;;;;0.50;0.50;;;22.60;88.50;;;;;;5014138;28;20204;-86
2021/10/01 10:32:02;;;;;;;0.40;0.40;;;22.80;86.10;;;;;;5013712;28;20671;-87
2021/10/01 10:34:31;;;;;;;0.40;0.40;;;23.60;82.20;;;;;;5014294;28;20236;-92
2021/10/01 10:37:07;;;;;;;1.30;0.50;;;24.50;81.20;;;;;;5015135;28;20213;-87
2021/10/01 10:39:50;;;;;;;0.50;0.50;;;26.10;76.40;;;;;;5014595;28;20563;-88
2021/10/01 10:42:21;;;;;;;0.40;0.30;;;27.20;70.00;;;;;;5014470;28;20198;-89
2021/10/01 10:44:51;;;;;;;0.40;0.40;;;28.10;65.40;;;;;;5014341;28;20209;-88
2021/10/01 10:48:01;;;;;;;0.40;0.40;;;28.50;59.90;;;;;;5014289;28;20189;-88
2021/10/01 10:50:33;;;;;;;0.52;0.52;;;28.10;57.50;;;;;;4990512;28;20270;-91
2021/10/01 10:53:12;;;;;;;0.40;0.40;;;27.30;58.80;;;;;;5014086;28;20258;-88
2021/10/01 10:55:55;;;;;;;0.40;0.40;;;26.10;59.50;;;;;;5014273;28;20275;-87
2021/10/01 10:58:51;;;;;;;0.60;0.50;;;24.70;59.00;;;;;;5014136;28;20199;-88
2021/10/01 11:01:40;;;;;;;1.15;0.30;;;23.30;60.40;;;;;;5014233;28;20227;-87
2021/10/01 11:04:41;;;;;;;0.40;0.40;;;22.40;62.60;;;;;;5014083;28;20239;-87
2021/10/01 11:07:09;;;;;;;1.17;0.40;;;21.60;64.60;;;;;;5013985;28;20207;-87
2021/10/01 11:09:41;;;;;;;0.50;0.40;;;20.90;68.00;;;;;;5013977;28;20188;-87
2021/10/01 11:12:27;;;;;;;0.40;0.40;;;20.60;71.90;;;;;;5013846;28;20424;-87
2021/10/01 11:15:13;;;;;;;0.37;0.37;;;20.30;73.10;;;;;;5014242;28;20451;-87
2021/10/01 11:17:39;;;;;;;0.40;0.30;;;20.00;72.60;;;;;;5013724;28;20447;-87
2021/10/01 11:20:07;;;;;;;0.30;0.30;;;19.80;73.20;;;;;;5013794;28;20451;-86
2021/10/01 11:22:38;;;;;;;0.43;0.40;;;19.80;75.20;;;;;;5014345;28;20474;-87
2021/10/01 11:25:13;;;;;;;0.40;0.40;;;19.70;72.50;;;;;;5013530;28;20566;-87
2021/10/01 11:27:55;;;;;;;0.50;0.40;;;19.70;73.50;;;;;;5013972;28;20435;-87
2021/10/01 11:30:23;;;;;;;0.40;0.40;;;19.70;75.60;;;;;;5013724;28;20463;-87
2021/10/01 11:32:50;;;;;;;0.40;0.30;;;19.70;76.80;;;;;;5013876;28;20876;-86
2021/10/01 11:35:18;;;;;;;0.40;0.40;;;19.50;76.20;;;;;;5013305;28;21006;-87
2021/10/01 11:37:48;;;;;;;0.40;0.30;;;19.50;75.40;;;;;;5013765;28;20462;-87
2021/10/01 11:40:21;;;;;;;0.40;0.40;;;19.50;74.30;;;;;;5013366;28;21013;-87
2021/10/01 11:42:50;;;;;;;0.57;0.33;;;19.40;75.90;;;;;;5013645;28;20783;-87
2021/10/01 11:45:20;;;;;;;0.53;0.40;;;19.30;77.50;;;;;;5016412;28;20479;-87
2021/10/01 11:47:53;;;;;;;0.50;0.50;;;19.30;75.50;;;;;;5017221;28;20446;-86
2021/10/01 11:50:27;;;;;;;0.37;0.37;;;19.20;75.90;;;;;;5017566;28;20464;-87
2021/10/01 11:52:55;;;;;;;0.90;0.43;;;19.10;78.40;;;;;;5017414;28;20880;-86
2021/10/01 11:55:21;;;;;;;0.50;0.40;;;19.10;77.70;;;;;;5017278;28;20436;-87
2021/10/01 11:57:48;;;;;;;0.40;0.30;;;19.10;77.90;;;;;;5016717;28;20935;-87
2021/10/01 12:00:18;;;;;;;0.50;0.40;;;19.00;79.10;;;;;;5016897;28;20472;-86
2021/10/01 12:02:48;;;;;;;0.40;0.40;;;18.90;80.70;;;;;;5017293;28;20463;-87
2021/10/01 12:05:27;;;;;;;0.43;0.43;;;18.90;81.60;;;;;;5017232;28;20483;-87
2021/10/01 12:07:56;;;;;;;0.50;0.50;;;18.80;82.40;;;;;;5017324;28;20449;-87
2021/10/01 12:10:24;;;;;;;0.50;0.30;;;18.80;83.70;;;;;;5016820;28;20455;-88
2021/10/01 12:13:10;;;;;;;0.40;0.40;;;18.70;83.90;;;;;;5017113;28;20428;-87
2021/10/01 12:15:44;;;;;;;1.17;0.40;;;18.70;84.50;;;;;;5017080;28;20506;-87
2021/10/01 12:18:44;;;;;;;0.73;0.73;;;18.60;85.20;;;;;;5016881;28;20431;-85
2021/10/01 12:21:16;;;;;;;0.40;0.40;;;18.60;85.10;;;;;;4975210;28;20487;-86
2021/10/01 12:23:45;;;;;;;1.63;0.40;;;18.50;86.40;;;;;;5009241;28;20467;-87
2021/10/01 12:26:20;;;;;;;0.83;0.50;;;18.50;86.70;;;;;;5016643;28;20483;-87
2021/10/01 12:28:59;;;;;;;1.07;0.37;;;18.40;86.30;;;;;;5016890;28;20436;-87
2021/10/01 12:31:29;;;;;;;0.47;0.47;;;18.50;87.40;;;;;;5016640;28;20482;-87
2021/10/01 12:33:59;;;;;;;0.60;0.40;;;18.50;87.70;;;;;;5016506;28;20853;-87
2021/10/01 12:36:27;;;;;;;0.30;0.30;;;18.50;85.50;;;;;;5016653;28;20431;-87
2021/10/01 12:38:55;;;;;;;0.70;0.40;;;18.40;86.90;;;;;;5016168;28;20447;-85
2021/10/01 12:41:22;;;;;;;0.97;0.40;;;18.40;88.10;;;;;;5016203;28;20466;-87
2021/10/01 12:43:51;;;;;;;0.40;0.40;;;18.30;90.30;;;;;;5016342;28;20458;-86
2021/10/01 12:46:38;;;;;;;0.50;0.40;;;18.30;90.00;;;;;;5017133;28;20494;-86
2021/10/01 12:49:21;;;;;;;0.50;0.33;;;18.20;89.30;;;;;;5016159;28;20451;-87
2021/10/01 12:52:11;;;;;;;0.40;0.40;;;18.20;90.80;;;;;;5016061;28;21013;-87
2021/10/01 12:54:44;;;;;;;1.70;0.63;;;18.20;90.60;;;;;;5015934;28;20435;-87
2021/10/01 12:57:14;;;;;;;0.40;0.40;;;18.20;90.30;;;;;;5016146;28;20431;-86
2021/10/01 12:59:43;;;;;;;0.30;0.30;;;18.20;91.00;;;;;;5015768;28;20443;-87
2021/10/01 13:02:12;;;;;;;0.67;0.67;;;18.20;90.60;;;;;;5015968;28;20939;-87
2021/10/01 13:04:53;;;;;;;0.60;0.40;;;18.20;90.50;;;;;;5015973;28;20835;-87
2021/10/01 13:07:32;;;;;;;0.40;0.33;;;18.30;90.60;;;;;;5015886;28;20439;-87
2021/10/01 13:10:01;;;;;;;0.40;0.40;;;18.30;91.20;;;;;;5015871;28;20471;-88
2021/10/01 13:12:37;;;;;;;1.27;0.63;;;18.30;91.30;;;;;;5015813;28;20799;-86
2021/10/01 13:15:16;;;;;;;2.00;0.50;;;18.40;91.20;;;;;;5015806;28;20432;-87
2021/10/01 13:17:44;;;;;;;0.30;0.30;;;18.40;92.10;;;;;;5015980;28;20450;-87
2021/10/01 13:20:12;;;;;;;0.40;0.30;;;18.40;91.60;;;;;;5015941;28;20475;-87
2021/10/01 13:23:01;;;;;;;2.13;0.87;;;18.40;90.80;;;;;;5015909;28;20454;-87
2021/10/01 13:25:29;;;;;;;0.77;0.40;;;18.40;92.00;;;;;;5015342;28;20475;-87
2021/10/01 13:27:58;;;;;;;0.80;0.50;;;18.40;91.40;;;;;;5015829;28;20447;-87
2021/10/01 13:30:25;;;;;;;0.60;0.50;;;18.50;91.80;;;;;;5015185;28;20664;-86
2021/10/01 13:32:52;;;;;;;0.90;0.60;;;18.50;92.10;;;;;;5016021;28;20471;-87
2021/10/01 13:35:20;;;;;;;2.30;0.40;;;18.50;92.20;;;;;;5015027;28;20480;-87
2021/10/01 13:37:48;;;;;;;1.33;0.40;;;18.60;91.90;;;;;;5015605;28;20451;-88
2021/10/01 13:40:15;;;;;;;0.63;0.60;;;18.60;93.10;;;;;;5015577;28;20651;-87
2021/10/01 13:42:43;;;;;;;0.50;0.50;;;18.60;92.40;;;;;;5015575;28;20451;-88
2021/10/01 13:45:11;;;;;;;0.83;0.40;;;18.60;92.90;;;;;;5015070;28;21021;-88
2021/10/01 13:47:38;;;;;;;0.70;0.50;;;18.70;92.70;;;;;;5015413;28;20452;-88
2021/10/01 13:50:06;;;;;;;0.70;0.50;;;18.60;92.90;;;;;;5015348;28;20475;-88
2021/10/01 13:52:35;;;;;;;0.50;0.50;;;18.60;93.60;;;;;;5015369;28;20834;-87
2021/10/01 13:55:01;;;;;;;0.80;0.60;;;18.60;93.70;;;;;;5015390;28;20463;-88
2021/10/01 13:57:29;;;;;;;2.10;0.60;;;18.70;93.60;;;;;;5015151;28;20459;-88
2021/10/01 13:59:56;;;;;;;0.60;0.50;;;18.70;93.90;;;;;;5014972;28;20797;-87
2021/10/01 14:02:23;;;;;;;1.33;0.80;;;18.70;94.30;;;;;;5015016;28;20443;-86
2021/10/01 14:04:49;;;;;;;0.67;0.67;;;18.70;95.10;;;;;;5014798;28;20962;-83
2021/10/01 14:07:16;;;;;;;1.17;0.90;;;18.80;95.10;;;;;;5013808;28;20494;-87
2021/10/01 14:09:45;;;;;;;1.43;0.70;;;18.80;93.90;;;;;;5014704;28;20870;-86
2021/10/01 14:12:13;;;;;;;0.63;0.60;;;18.80;94.00;;;;;;5014722;28;20452;-86
2021/10/01 14:14:39;;;;;;;0.63;0.60;;;18.80;94.20;;;;;;5014596;28;20469;-86
2021/10/01 14:17:06;;;;;;;0.93;0.60;;;18.80;94.60;;;;;;5014584;28;20454;-85
2021/10/01 14:19:33;;;;;;;1.10;1.10;;;18.80;94.00;;;;;;5014255;28;20439;-86
2021/10/01 14:22:00;;;;;;;0.97;0.97;;;18.80;94.20;;;;;;5014636;28;20818;-86
2021/10/01 14:24:26;;;;;;;0.50;0.50;;;18.70;94.90;;;;;;5014451;28;20451;-86
2021/10/01 14:26:54;;;;;;;1.40;0.53;;;18.70;95.60;;;;;;5014278;28;20479;-86
2021/10/01 14:29:21;;;;;;;0.80;0.60;;;18.60;95.60;;;;;;5014165;28;20443;-86
2021/10/01 14:31:48;;;;;;;0.80;0.80;;;18.60;96.10;;;;;;5014257;28;20472;-86
2021/10/01 14:34:15;;;;;;;0.83;0.77;;;18.70;94.80;;;;;;5013967;28;20479;-86
2021/10/01 14:36:41;;;;;;;1.13;0.63;;;18.70;95.20;;;;;;5014660;28;20798;-86